createdAt,value
2018-10-03T00:01:32.198Z,10.30
2018-10-03T00:04:01.162Z,10.30
2018-10-03T00:06:30.184Z,10.30
2018-10-03T00:08:59.201Z,10.30
2018-10-03T00:11:28.580Z,10.30
2018-10-03T00:13:57.552Z,10.40
2018-10-03T00:16:26.540Z,10.40
2018-10-03T00:18:55.543Z,10.40
2018-10-03T00:21:24.585Z,10.30
2018-10-03T00:23:53.604Z,10.20
2018-10-03T00:26:22.560Z,10.10
2018-10-03T00:28:51.484Z,10.10
2018-10-03T00:31:20.548Z,10.10
2018-10-03T00:33:49.538Z,10.00
2018-10-03T00:36:18.677Z,10.00
2018-10-03T00:38:47.795Z,10.00
2018-10-03T00:41:16.779Z,10.00
2018-10-03T00:43:45.856Z,10.00
2018-10-03T00:46:14.823Z,10.00
2018-10-03T00:48:43.833Z,10.10
2018-10-03T00:51:12.866Z,10.10
2018-10-03T00:53:41.968Z,10.00
2018-10-03T00:56:11.160Z,10.00
2018-10-03T00:58:40.290Z,9.90
2018-10-03T01:01:09.419Z,9.90
2018-10-03T01:03:38.364Z,10.00
2018-10-03T01:06:07.462Z,10.00
2018-10-03T01:08:36.644Z,10.00
2018-10-03T01:11:05.656Z,10.10
2018-10-03T01:13:34.739Z,10.20
2018-10-03T01:16:04.707Z,10.10
2018-10-03T01:18:33.673Z,10.20
2018-10-03T01:21:02.609Z,10.20
2018-10-03T01:23:31.597Z,10.20
2018-10-03T01:26:00.738Z,10.20
2018-10-03T01:28:29.692Z,10.20
2018-10-03T01:30:58.835Z,10.20
2018-10-03T01:33:27.799Z,10.20
2018-10-03T01:35:56.825Z,10.20
2018-10-03T01:38:25.753Z,10.20
2018-10-03T01:40:54.719Z,10.20
2018-10-03T01:43:23.658Z,10.20
2018-10-03T01:45:52.810Z,10.20
2018-10-03T01:48:21.914Z,10.10
2018-10-03T01:50:50.860Z,10.00
2018-10-03T01:53:19.906Z,9.90
2018-10-03T01:55:48.928Z,9.80
2018-10-03T01:58:18.008Z,9.80
2018-10-03T02:00:47.009Z,9.80
2018-10-03T02:03:15.991Z,9.70
2018-10-03T02:05:44.919Z,9.60
2018-10-03T02:08:14.433Z,9.50
2018-10-03T02:10:43.392Z,9.40
2018-10-03T02:13:12.994Z,9.40
2018-10-03T02:15:41.975Z,9.30
2018-10-03T02:18:10.923Z,9.20
2018-10-03T02:20:40.020Z,9.20
2018-10-03T02:23:09.046Z,9.20
2018-10-03T02:25:38.020Z,9.20
2018-10-03T02:28:06.979Z,9.20
2018-10-03T02:30:35.977Z,9.10
2018-10-03T02:33:04.964Z,9.20
2018-10-03T02:35:34.000Z,9.10
2018-10-03T02:38:03.107Z,9.10
2018-10-03T02:40:32.165Z,9.10
2018-10-03T02:43:01.144Z,9.20
2018-10-03T02:45:30.166Z,9.10
2018-10-03T02:47:59.149Z,9.10
2018-10-03T02:50:28.132Z,9.10
2018-10-03T02:52:57.214Z,9.10
2018-10-03T02:55:26.294Z,9.10
2018-10-03T02:57:55.277Z,9.20
2018-10-03T03:00:24.208Z,9.20
2018-10-03T03:02:53.196Z,9.40
2018-10-03T03:05:22.283Z,9.40
2018-10-03T03:07:51.345Z,9.30
2018-10-03T03:10:20.356Z,9.30
2018-10-03T03:12:49.420Z,9.30
2018-10-03T03:15:18.364Z,9.30
2018-10-03T03:17:47.432Z,9.40
2018-10-03T03:20:16.448Z,9.40
2018-10-03T03:22:45.424Z,9.40
2018-10-03T03:25:14.341Z,9.50
2018-10-03T03:27:43.344Z,9.50
2018-10-03T03:30:12.740Z,9.50
2018-10-03T03:32:41.767Z,9.50
2018-10-03T03:35:10.720Z,9.40
2018-10-03T03:37:39.837Z,9.40
2018-10-03T03:40:08.813Z,9.40
2018-10-03T03:42:37.764Z,9.40
2018-10-03T03:45:06.803Z,9.40
2018-10-03T03:47:35.767Z,9.40
2018-10-03T03:50:04.788Z,9.40
2018-10-03T03:52:33.763Z,9.40
2018-10-03T03:55:02.817Z,9.40
2018-10-03T03:57:31.765Z,9.40
2018-10-03T04:00:00.817Z,9.40
2018-10-03T04:02:29.807Z,9.40
2018-10-03T04:04:58.773Z,9.40
2018-10-03T04:07:27.732Z,9.40
2018-10-03T04:09:56.907Z,9.30
2018-10-03T04:12:25.995Z,9.30
2018-10-03T04:14:55.071Z,9.30
2018-10-03T04:17:24.411Z,9.30
2018-10-03T04:19:53.421Z,9.30
2018-10-03T04:22:22.456Z,9.30
2018-10-03T04:24:51.446Z,9.30
2018-10-03T04:27:20.415Z,9.30
2018-10-03T04:29:49.368Z,9.30
2018-10-03T04:32:18.373Z,9.30
2018-10-03T04:34:47.996Z,9.30
2018-10-03T04:37:16.937Z,9.30
2018-10-03T04:39:45.851Z,9.30
2018-10-03T04:42:14.930Z,9.40
2018-10-03T04:44:44.204Z,9.40
2018-10-03T04:47:13.156Z,9.40
2018-10-03T04:49:42.109Z,9.40
2018-10-03T04:52:11.110Z,9.40
2018-10-03T04:54:40.111Z,9.40
2018-10-03T04:57:09.168Z,9.30
2018-10-03T04:59:38.158Z,9.30
2018-10-03T05:02:07.156Z,9.20
2018-10-03T05:04:36.225Z,9.20
2018-10-03T05:07:05.368Z,9.10
2018-10-03T05:09:34.450Z,9.10
2018-10-03T05:12:03.411Z,9.10
2018-10-03T05:14:32.540Z,9.00
2018-10-03T05:17:01.481Z,9.00
2018-10-03T05:19:30.452Z,9.00
2018-10-03T05:21:59.431Z,9.00
2018-10-03T05:24:28.513Z,9.00
2018-10-03T05:26:57.507Z,9.00
2018-10-03T05:29:26.459Z,9.00
2018-10-03T05:31:55.399Z,9.00
2018-10-03T05:34:24.347Z,9.00
2018-10-03T05:36:53.388Z,9.10
2018-10-03T05:39:22.549Z,9.20
2018-10-03T05:41:51.523Z,9.30
2018-10-03T05:44:20.487Z,9.30
2018-10-03T05:46:49.434Z,9.30
2018-10-03T05:49:18.420Z,9.30
2018-10-03T05:51:47.467Z,9.40
2018-10-03T05:54:16.431Z,9.50
2018-10-03T05:56:45.437Z,9.50
2018-10-03T05:59:14.395Z,9.60
2018-10-03T06:01:43.381Z,9.60
2018-10-03T06:04:12.326Z,9.60
2018-10-03T06:06:41.399Z,9.70
2018-10-03T06:09:11.931Z,9.70
2018-10-03T06:11:42.203Z,9.80
2018-10-03T06:14:11.949Z,9.90
2018-10-03T06:16:41.041Z,10.00
2018-10-03T06:19:10.095Z,10.00
2018-10-03T06:21:39.104Z,10.10
2018-10-03T06:24:08.185Z,10.00
2018-10-03T06:26:37.291Z,10.00
2018-10-03T06:29:06.321Z,9.90
2018-10-03T06:31:35.399Z,9.90
2018-10-03T06:34:04.415Z,9.90
2018-10-03T06:36:33.489Z,9.90
2018-10-03T06:39:02.587Z,9.90
2018-10-03T06:41:31.570Z,9.90
2018-10-03T06:44:00.811Z,9.90
2018-10-03T06:46:29.794Z,9.80
2018-10-03T06:48:58.978Z,9.70
2018-10-03T06:51:28.021Z,9.70
2018-10-03T06:53:57.231Z,9.60
2018-10-03T06:56:26.312Z,9.70
2018-10-03T06:58:55.290Z,9.70
2018-10-03T07:01:24.259Z,9.70
2018-10-03T07:03:53.229Z,9.70
2018-10-03T07:06:22.215Z,9.70
2018-10-03T07:08:51.334Z,9.80
2018-10-03T07:11:20.333Z,10.00
2018-10-03T07:13:49.808Z,10.00
2018-10-03T07:16:19.396Z,10.10
2018-10-03T07:18:48.482Z,10.20
2018-10-03T07:21:17.532Z,10.20
2018-10-03T07:23:46.538Z,10.10
2018-10-03T07:26:16.138Z,10.20
2018-10-03T07:28:45.128Z,10.30
2018-10-03T07:31:14.231Z,10.30
2018-10-03T07:33:43.170Z,10.40
2018-10-03T07:36:12.140Z,10.50
2018-10-03T07:38:41.108Z,10.70
2018-10-03T07:41:10.085Z,10.80
2018-10-03T07:43:39.104Z,10.80
2018-10-03T07:46:08.101Z,10.80
2018-10-03T07:48:37.224Z,10.80
2018-10-03T07:51:07.671Z,10.80
2018-10-03T07:53:36.712Z,10.80
2018-10-03T07:56:05.823Z,10.90
2018-10-03T07:58:34.854Z,10.90
2018-10-03T08:01:03.933Z,10.90
2018-10-03T08:03:32.882Z,10.90
2018-10-03T08:06:01.942Z,10.90
2018-10-03T08:08:31.008Z,10.80
2018-10-03T08:11:00.027Z,10.80
2018-10-03T08:13:29.023Z,10.80
2018-10-03T08:15:58.201Z,11.10
2018-10-03T08:18:27.174Z,11.20
2018-10-03T08:20:56.436Z,11.30
2018-10-03T08:23:25.506Z,11.30
2018-10-03T08:25:54.499Z,11.80
2018-10-03T08:28:23.660Z,12.20
2018-10-03T08:30:52.655Z,12.50
2018-10-03T08:33:21.695Z,12.60
2018-10-03T08:35:51.202Z,12.40
2018-10-03T08:38:20.176Z,12.40
2018-10-03T08:40:49.156Z,12.50
2018-10-03T08:43:18.764Z,12.30
2018-10-03T08:45:48.361Z,12.10
2018-10-03T08:48:17.479Z,12.20
2018-10-03T08:50:47.248Z,12.40
2018-10-03T08:53:16.242Z,12.90
2018-10-03T08:55:45.221Z,13.60
2018-10-03T08:58:14.320Z,14.00
2018-10-03T09:00:43.588Z,14.50
2018-10-03T09:03:12.576Z,14.60
2018-10-03T09:05:41.526Z,14.90
2018-10-03T09:08:13.178Z,14.90
2018-10-03T09:10:44.561Z,14.70
2018-10-03T09:13:14.163Z,14.70
2018-10-03T09:15:43.243Z,14.60
2018-10-03T09:18:12.246Z,14.40
2018-10-03T09:20:41.252Z,14.40
2018-10-03T09:23:10.559Z,14.70
2018-10-03T09:25:39.711Z,15.10
2018-10-03T09:28:09.397Z,15.00
2018-10-03T09:30:38.415Z,15.00
2018-10-03T09:33:07.568Z,14.70
2018-10-03T09:35:36.599Z,14.40
2018-10-03T09:38:05.557Z,14.20
2018-10-03T09:40:34.559Z,14.00
2018-10-03T09:43:03.559Z,14.00
2018-10-03T09:45:32.657Z,13.90
2018-10-03T09:48:01.626Z,13.60
2018-10-03T09:50:30.694Z,14.20
2018-10-03T09:52:59.685Z,14.30
2018-10-03T09:55:28.629Z,14.40
2018-10-03T09:57:57.629Z,14.30
2018-10-03T10:00:31.975Z,13.90
2018-10-03T10:03:01.007Z,14.10
2018-10-03T10:05:30.082Z,14.40
2018-10-03T10:07:59.150Z,14.60
2018-10-03T10:10:28.092Z,14.50
2018-10-03T10:12:57.072Z,14.10
2018-10-03T10:15:26.084Z,13.80
2018-10-03T10:17:55.111Z,14.00
2018-10-03T10:20:24.127Z,14.70
2018-10-03T10:22:53.343Z,14.70
2018-10-03T10:25:22.271Z,14.70
2018-10-03T10:27:51.272Z,14.50
2018-10-03T10:30:20.237Z,14.90
2018-10-03T10:32:49.331Z,15.40
2018-10-03T10:35:18.239Z,16.00
2018-10-03T10:37:47.207Z,16.70
2018-10-03T10:40:16.219Z,17.60
2018-10-03T10:42:45.162Z,17.30
2018-10-03T10:45:14.243Z,16.70
2018-10-03T10:47:43.224Z,16.20
2018-10-03T10:50:12.382Z,16.10
2018-10-03T10:52:41.308Z,15.80
2018-10-03T10:55:10.320Z,16.10
2018-10-03T10:57:39.571Z,16.50
2018-10-03T11:00:08.760Z,16.70
2018-10-03T11:02:38.028Z,16.30
2018-10-03T11:05:07.016Z,16.30
2018-10-03T11:07:36.004Z,16.40
2018-10-03T11:10:05.046Z,16.60
2018-10-03T11:12:34.226Z,16.70
2018-10-03T11:15:03.239Z,16.50
2018-10-03T11:17:32.310Z,16.10
2018-10-03T11:20:01.464Z,15.70
2018-10-03T11:22:30.506Z,15.70
2018-10-03T11:24:59.529Z,16.30
2018-10-03T11:27:28.410Z,16.00
2018-10-03T11:29:57.374Z,16.20
2018-10-03T11:32:26.430Z,16.30
2018-10-03T11:34:55.492Z,16.30
2018-10-03T11:37:24.461Z,16.60
2018-10-03T11:39:53.511Z,16.80
2018-10-03T11:42:22.495Z,16.80
2018-10-03T11:44:51.430Z,17.00
2018-10-03T11:47:20.497Z,17.20
2018-10-03T11:49:49.483Z,17.20
2018-10-03T11:52:18.544Z,17.30
2018-10-03T11:54:47.514Z,16.90
2018-10-03T11:57:16.612Z,17.00
2018-10-03T11:59:45.551Z,17.20
2018-10-03T12:02:14.558Z,17.30
2018-10-03T12:04:43.554Z,17.20
2018-10-03T12:07:12.714Z,17.30
2018-10-03T12:09:41.651Z,17.50
2018-10-03T12:12:10.606Z,17.40
2018-10-03T12:14:39.556Z,17.60
2018-10-03T12:17:08.546Z,17.80
2018-10-03T12:19:37.489Z,17.60
2018-10-03T12:22:06.965Z,17.30
2018-10-03T12:24:35.960Z,17.50
2018-10-03T12:27:05.158Z,17.10
2018-10-03T12:29:34.206Z,16.50
2018-10-03T12:32:03.205Z,16.10
2018-10-03T12:34:32.149Z,16.60
2018-10-03T12:37:01.436Z,16.40
2018-10-03T12:39:29.896Z,16.70
2018-10-03T12:41:58.367Z,16.70
2018-10-03T12:44:27.213Z,17.00
2018-10-03T12:46:55.680Z,16.90
2018-10-03T12:49:24.210Z,17.60
2018-10-03T12:51:52.680Z,17.10
2018-10-03T12:54:21.221Z,17.50
2018-10-03T12:56:49.682Z,17.60
2018-10-03T12:59:18.887Z,17.70
2018-10-03T13:01:47.503Z,17.90
2018-10-03T13:04:16.296Z,18.50
2018-10-03T13:06:44.869Z,19.40
2018-10-03T13:09:14.691Z,19.30
2018-10-03T13:11:43.841Z,19.50
2018-10-03T13:14:12.596Z,19.50
2018-10-03T13:16:41.169Z,19.00
2018-10-03T13:19:09.818Z,18.40
2018-10-03T13:21:38.947Z,17.90
2018-10-03T13:24:07.618Z,17.10
2018-10-03T13:26:36.281Z,16.20
2018-10-03T13:29:05.102Z,15.20
2018-10-03T13:31:33.654Z,14.90
2018-10-03T13:34:02.154Z,14.80
2018-10-03T13:36:31.169Z,15.00
2018-10-03T13:39:00.043Z,15.10
2018-10-03T13:41:29.082Z,15.70
2018-10-03T13:43:57.506Z,16.40
2018-10-03T13:46:26.027Z,17.20
2018-10-03T13:48:54.507Z,17.40
2018-10-03T13:51:23.158Z,17.10
2018-10-03T13:53:51.631Z,17.30
2018-10-03T13:56:20.284Z,17.10
2018-10-03T13:58:48.909Z,17.30
2018-10-03T14:01:17.416Z,17.10
2018-10-03T14:03:45.919Z,16.70
2018-10-03T14:06:14.406Z,17.00
2018-10-03T14:08:43.003Z,17.10
2018-10-03T14:11:11.691Z,17.30
2018-10-03T14:13:40.064Z,17.00
2018-10-03T14:16:08.936Z,17.10
2018-10-03T14:18:37.531Z,16.90
2018-10-03T14:21:06.131Z,17.00
2018-10-03T14:23:34.595Z,16.70
2018-10-03T14:26:03.269Z,17.10
2018-10-03T14:28:31.724Z,16.80
2018-10-03T14:31:00.323Z,17.10
2018-10-03T14:33:28.777Z,17.00
2018-10-03T14:35:57.591Z,16.80
2018-10-03T14:38:26.337Z,16.30
2018-10-03T14:40:55.020Z,15.90
2018-10-03T14:43:23.489Z,15.80
2018-10-03T14:45:52.218Z,15.70
2018-10-03T14:48:20.836Z,15.70
2018-10-03T14:50:49.590Z,15.30
2018-10-03T14:53:18.197Z,14.40
2018-10-03T14:55:46.740Z,13.80
2018-10-03T14:58:15.305Z,13.60
2018-10-03T15:00:43.910Z,13.60
2018-10-03T15:03:13.372Z,13.50
2018-10-03T15:05:42.566Z,13.70
2018-10-03T15:08:11.252Z,13.70
2018-10-03T15:10:40.119Z,13.60
2018-10-03T15:13:08.921Z,13.60
2018-10-03T15:15:37.412Z,13.50
2018-10-03T15:18:06.012Z,13.40
2018-10-03T15:20:34.584Z,13.30
2018-10-03T15:23:03.166Z,13.30
2018-10-03T15:25:31.686Z,13.30
2018-10-03T15:28:00.649Z,13.30
2018-10-03T15:30:29.105Z,13.20
2018-10-03T15:32:57.548Z,13.10
2018-10-03T15:35:26.776Z,13.00
2018-10-03T15:37:55.353Z,13.00
2018-10-03T15:40:23.893Z,12.90
2018-10-03T15:42:52.466Z,12.90
2018-10-03T15:45:20.972Z,13.00
2018-10-03T15:47:49.556Z,13.00
2018-10-03T15:50:18.145Z,13.00
2018-10-03T15:52:47.191Z,13.00
2018-10-03T15:55:15.740Z,12.90
2018-10-03T15:57:44.552Z,12.80
2018-10-03T16:00:13.399Z,12.80
2018-10-03T16:02:41.984Z,12.80
2018-10-03T16:05:10.707Z,12.70
2018-10-03T16:07:39.255Z,12.70
2018-10-03T16:10:07.799Z,12.70
2018-10-03T16:12:36.306Z,12.50
2018-10-03T16:15:04.846Z,12.50
2018-10-03T16:17:33.403Z,12.50
2018-10-03T16:20:02.109Z,12.40
2018-10-03T16:22:30.804Z,12.40
2018-10-03T16:24:59.355Z,12.40
2018-10-03T16:27:27.801Z,12.40
2018-10-03T16:29:56.255Z,12.40
2018-10-03T16:32:24.745Z,12.40
2018-10-03T16:34:53.176Z,12.40
2018-10-03T16:37:21.634Z,12.50
2018-10-03T16:39:50.172Z,12.50
2018-10-03T16:42:18.655Z,12.50
2018-10-03T16:44:47.115Z,12.50
2018-10-03T16:47:15.658Z,12.50
2018-10-03T16:49:44.157Z,12.50
2018-10-03T16:52:12.638Z,12.50
2018-10-03T16:54:47.883Z,12.50
2018-10-03T16:57:16.421Z,12.50
2018-10-03T16:59:44.877Z,12.40
2018-10-03T17:02:13.332Z,12.40
2018-10-03T17:04:41.828Z,12.30
2018-10-03T17:07:10.385Z,12.30
2018-10-03T17:09:38.913Z,12.30
2018-10-03T17:12:07.453Z,12.20
2018-10-03T17:14:38.923Z,12.10
2018-10-03T17:17:07.996Z,12.00
2018-10-03T17:19:36.743Z,12.00
2018-10-03T17:22:05.392Z,11.90
2018-10-03T17:24:35.206Z,11.90
2018-10-03T17:27:03.661Z,11.80
2018-10-03T17:29:32.154Z,11.70
2018-10-03T17:32:00.746Z,11.70
2018-10-03T17:34:29.239Z,11.60
2018-10-03T17:37:05.592Z,11.60
2018-10-03T17:39:34.141Z,11.60
2018-10-03T17:42:02.625Z,11.50
2018-10-03T17:44:31.191Z,11.40
2018-10-03T17:46:59.750Z,11.40
2018-10-03T17:49:28.336Z,11.40
2018-10-03T17:51:56.933Z,11.40
2018-10-03T17:54:25.412Z,11.40
2018-10-03T17:56:53.998Z,11.40
2018-10-03T17:59:22.516Z,11.40
2018-10-03T18:01:53.968Z,11.40
2018-10-03T18:04:22.513Z,11.40
2018-10-03T18:06:51.026Z,11.40
2018-10-03T18:09:19.607Z,11.40
2018-10-03T18:11:48.020Z,11.40
2018-10-03T18:14:16.485Z,11.50
2018-10-03T18:16:45.054Z,11.50
2018-10-03T18:19:13.543Z,11.50
2018-10-03T18:21:42.097Z,11.50
2018-10-03T18:24:10.724Z,11.50
2018-10-03T18:26:39.209Z,11.50
2018-10-03T18:29:07.890Z,11.50
2018-10-03T18:31:36.380Z,11.50
2018-10-03T18:34:04.913Z,11.50
2018-10-03T18:36:33.389Z,11.40
2018-10-03T18:39:01.886Z,11.40
2018-10-03T18:41:30.423Z,11.40
2018-10-03T18:43:58.889Z,11.30
2018-10-03T18:46:27.404Z,11.30
2018-10-03T18:48:55.888Z,11.30
2018-10-03T18:51:24.371Z,11.30
2018-10-03T18:53:53.678Z,11.20
2018-10-03T18:56:22.311Z,11.20
2018-10-03T18:58:50.810Z,11.20
2018-10-03T19:01:22.831Z,11.20
2018-10-03T19:03:51.324Z,11.20
2018-10-03T19:06:19.845Z,11.20
2018-10-03T19:08:48.441Z,11.20
2018-10-03T19:11:17.054Z,11.20
2018-10-03T19:13:45.559Z,11.30
2018-10-03T19:16:14.199Z,11.30
2018-10-03T19:18:43.240Z,11.30
2018-10-03T19:21:11.703Z,11.20
2018-10-03T19:23:40.331Z,11.20
2018-10-03T19:26:08.785Z,11.20
2018-10-03T19:28:37.352Z,11.10
2018-10-03T19:31:05.907Z,11.00
2018-10-03T19:33:34.360Z,10.90
2018-10-03T19:36:02.853Z,10.80
2018-10-03T19:38:32.332Z,10.70
2018-10-03T19:41:00.884Z,10.70
2018-10-03T19:43:29.481Z,10.60
2018-10-03T19:45:57.999Z,10.60
2018-10-03T19:48:26.649Z,10.60
2018-10-03T19:50:55.052Z,10.70
2018-10-03T19:53:29.011Z,10.70
2018-10-03T19:55:57.503Z,10.80
2018-10-03T19:58:25.971Z,10.80
2018-10-03T20:00:54.430Z,10.80
2018-10-03T20:03:22.912Z,10.80
2018-10-03T20:05:51.620Z,10.70
2018-10-03T20:08:20.818Z,10.70
2018-10-03T20:10:50.103Z,10.70
2018-10-03T20:13:18.603Z,10.80
2018-10-03T20:15:47.053Z,10.70
2018-10-03T20:18:15.561Z,10.70
2018-10-03T20:20:44.127Z,10.70
2018-10-03T20:23:12.680Z,10.70
2018-10-03T20:25:41.179Z,10.70
2018-10-03T20:28:09.684Z,10.70
2018-10-03T20:30:38.220Z,10.60
2018-10-03T20:33:06.712Z,10.60
2018-10-03T20:35:35.200Z,10.60
2018-10-03T20:38:03.638Z,10.60
2018-10-03T20:40:32.144Z,10.70
2018-10-03T20:43:00.657Z,10.70
2018-10-03T20:45:29.315Z,10.70
2018-10-03T20:47:57.916Z,10.70
2018-10-03T20:50:26.469Z,10.70
2018-10-03T20:52:55.622Z,10.70
2018-10-03T20:55:24.224Z,10.70
2018-10-03T20:57:53.666Z,10.70
2018-10-03T21:00:22.241Z,10.80
2018-10-03T21:02:50.623Z,10.80
2018-10-03T21:05:19.069Z,10.80
2018-10-03T21:07:47.611Z,10.70
2018-10-03T21:10:16.095Z,10.70
2018-10-03T21:12:44.606Z,10.60
2018-10-03T21:15:19.797Z,10.60
2018-10-03T21:17:48.284Z,10.60
2018-10-03T21:20:16.759Z,10.60
2018-10-03T21:22:45.248Z,10.70
2018-10-03T21:25:14.012Z,10.70
2018-10-03T21:27:42.725Z,10.70
2018-10-03T21:30:11.282Z,10.70
2018-10-03T21:32:39.761Z,10.70
2018-10-03T21:35:08.290Z,10.60
2018-10-03T21:37:36.725Z,10.60
2018-10-03T21:40:05.426Z,10.60
2018-10-03T21:42:33.896Z,10.60
2018-10-03T21:45:02.351Z,10.60
2018-10-03T21:47:30.934Z,10.50
2018-10-03T21:49:59.539Z,10.50
2018-10-03T21:52:28.109Z,10.50
2018-10-03T21:54:56.664Z,10.40
2018-10-03T21:57:25.285Z,10.50
2018-10-03T21:59:53.800Z,10.50
2018-10-03T22:02:22.677Z,10.50
2018-10-03T22:04:51.252Z,10.40
2018-10-03T22:07:19.684Z,10.40
2018-10-03T22:09:48.310Z,10.40
2018-10-03T22:12:16.750Z,10.40
2018-10-03T22:14:45.304Z,10.40
2018-10-03T22:17:19.087Z,10.40
2018-10-03T22:19:47.618Z,10.40
2018-10-03T22:22:16.066Z,10.40
2018-10-03T22:24:44.564Z,10.40
2018-10-03T22:27:13.086Z,10.30
2018-10-03T22:29:42.144Z,10.30
2018-10-03T22:32:10.916Z,10.30
2018-10-03T22:34:40.349Z,10.30
2018-10-03T22:37:09.636Z,10.30
2018-10-03T22:39:38.216Z,10.20
2018-10-03T22:42:06.973Z,10.30
2018-10-03T22:44:35.450Z,10.30
2018-10-03T22:47:03.916Z,10.30
2018-10-03T22:49:32.371Z,10.30
2018-10-03T22:52:00.841Z,10.20
2018-10-03T22:54:29.276Z,10.20
2018-10-03T22:56:57.729Z,10.20
2018-10-03T22:59:27.128Z,10.20
2018-10-03T23:01:55.725Z,10.20
2018-10-03T23:04:24.291Z,10.20
2018-10-03T23:06:53.837Z,10.20
2018-10-03T23:09:22.268Z,10.10
2018-10-03T23:11:50.699Z,10.10
2018-10-03T23:14:19.168Z,10.00
2018-10-03T23:16:47.756Z,10.10
2018-10-03T23:19:16.850Z,10.00
2018-10-03T23:21:45.395Z,10.00
2018-10-03T23:24:13.873Z,10.00
2018-10-03T23:26:42.298Z,10.00
2018-10-03T23:29:10.736Z,10.00
2018-10-03T23:31:39.164Z,10.00
2018-10-03T23:34:07.714Z,10.00
2018-10-03T23:36:38.800Z,10.00
2018-10-03T23:39:09.247Z,10.00
2018-10-03T23:41:38.121Z,10.00
2018-10-03T23:44:06.702Z,10.00
2018-10-03T23:46:35.403Z,10.00
2018-10-03T23:49:04.116Z,10.00
2018-10-03T23:51:32.741Z,10.00
2018-10-03T23:54:01.190Z,10.00
2018-10-03T23:56:29.738Z,10.00
